Victoria, TX (77904)

9:13 PM CDT on March 23, 2017 (GMT -0500)
Riata | | Change Station

Elev 125 ft 28.84 °N, 96.97 °W | Updated 19 seconds ago

Partly Cloudy
Partly Cloudy
71.2 °F
Feels Like 70 °F
N
4.9
Wind Variable Wind from ESE
Gusts 5.0 mph

Today
High -- | Low -- °F
--% Chance of Precip.
Yesterday
High -- | Low -- °F
Precip. -- in
Pressure 30.00 in
Visibility 10.0 miles
Clouds Few 2100 ft
Few 2700 ft
Heat Index 70 °F
Dew Point 66 °F
Humidity 84%
Rainfall 0.00 in
Snow Depth Not available.
7:27 AM 7:41 PM
Waning Crescent, 19% visible
METAR KVCT 240151Z 14014G21KT 10SM FEW021 FEW027 22/18 A3000 RMK AO2 SLP158 T02170178 $
Pressure 30.00 in
Visibility 10.0 miles
Clouds Few 2100 ft
Few 2700 ft
Heat Index 70 °F
Dew Point 66 °F
Humidity 84%
Rainfall 0.00 in
Snow Depth Not available.
7:27 AM 7:41 PM
Waning Crescent, 19% visible
METAR KVCT 240151Z 14014G21KT 10SM FEW021 FEW027 22/18 A3000 RMK AO2 SLP158 T02170178 $

Get Severe Weather Alerts

Thanks for signing up!

Be on the lookout for a verification email in your inbox.

You'll start receiving the daily forecast at 8 AM.

×

10-Day Weather Forecast

Almanac

Astronomy

Mar. 23, 2017 Rise Set
Actual Time
Civil Twilight
Nautical Twilight
Astronomical Twilight
Moon
Length of Visible Light
Length of Day
Tomorrow will be .
, % of the Moon is Illuminated

Today's Extremes

State Highs State Lows

Community

WunderPhotos

Upload Photos

1,962,540 photos uploaded!

WunderBlog® & News

Nearby

Air Quality

  Air Quality AQ Index Pollutant
Not available.

Snow Depth

Station Depth Elevation

Earthquake Activity

City Distance Mag. Time & Date
Minimum magnitude displayed is 2.5.

Earthquake Activity

City Distance Mag. Time & Date
Minimum magnitude displayed is 2.5.

Coastal Water Temperatures

Place Temperature

Stations

Nearby Weather Stations

Station Location Temp. Windchill Dew Point Humidity Wind Precip. Elev Updated Type
                   

Watches & Warnings

There are currently no watches in effect.